• Join FlightAware (Why Join?)
  • Login
  • US Flag 
11:57AM EST


 

Airport Tracker/Info


-or-


 

Live Flight TrackerFlight Track Log ✈ CSN6406 ✈ 04-Oct-2013 ✈ ZSQD / TAO - ZGKL / KWL

Flight Track Log - Related Links

Times and Time Zones

All times are in EDT time to prevent confusion due to time zone crossing. See the CSN6406 flight status page for this flight to view local times or setup timezone preferences in your user account.

Time Position Orientation Groundspeed Altitude Reporting Facility
EDT Latitude Longitude Course Direction KTS MPH feet Rate Location/Type
09:14AM 36.1865 120.2869 222° Southwest  Level Estimated
09:15AM 36.1068 120.1996 222° Southwest  Level Estimated
09:16AM 36.0270 120.1124 221° Southwest  Level Estimated
09:17AM 35.9472 120.0255 221° Southwest  Level Estimated
09:18AM 35.8673 119.9387 221° Southwest  Level Estimated
09:19AM 35.7873 119.8521 221° Southwest  Level Estimated
09:20AM 35.7073 119.7656 221° Southwest  Level Estimated
09:21AM 35.6272 119.6793 221° Southwest  Level Estimated
09:22AM 35.5471 119.5932 221° Southwest  Level Estimated
09:23AM 35.4669 119.5073 221° Southwest  Level Estimated
09:24AM 35.3866 119.4215 221° Southwest  Level Estimated
09:25AM 35.3063 119.3359 221° Southwest  Level Estimated
09:26AM 35.2259 119.2505 221° Southwest  Level Estimated
09:27AM 35.1455 119.1653 221° Southwest  Level Estimated
09:28AM 35.0650 119.0802 221° Southwest  Level Estimated
09:29AM 34.9844 118.9953 221° Southwest  Level Estimated
09:30AM 34.9038 118.9105 221° Southwest  Level Estimated
09:31AM 34.8231 118.8259 221° Southwest  Level Estimated
09:32AM 34.7424 118.7415 221° Southwest  Level Estimated
09:33AM 34.6616 118.6573 221° Southwest  Level Estimated
09:34AM 34.5807 118.5732 221° Southwest  Level Estimated
09:35AM 34.4998 118.4893 221° Southwest  Level Estimated
09:36AM 34.4189 118.4055 220° Southwest  Level Estimated
09:37AM 34.3378 118.3219 220° Southwest  Level Estimated
09:38AM 34.2568 118.2385 220° Southwest  Level Estimated
09:39AM 34.1756 118.1552 220° Southwest  Level Estimated
09:40AM 34.0944 118.0721 220° Southwest  Level Estimated
09:41AM 34.0132 117.9891 220° Southwest  Level Estimated
09:42AM 33.9319 117.9063 220° Southwest  Level Estimated
09:43AM 33.8505 117.8237 220° Southwest  Level Estimated
09:44AM 33.7691 117.7412 220° Southwest  Level Estimated
09:45AM 33.6876 117.6589 220° Southwest  Level Estimated
09:46AM 33.6061 117.5767 220° Southwest  Level Estimated
09:47AM 33.5245 117.4947 220° Southwest  Level Estimated
09:48AM 33.4429 117.4128 220° Southwest  Level Estimated
09:49AM 33.3612 117.3311 220° Southwest  Level Estimated
09:50AM 33.2794 117.2495 220° Southwest  Level Estimated
09:51AM 33.1977 117.1681 220° Southwest  Level Estimated
09:52AM 33.1158 117.0869 220° Southwest  Level Estimated
09:53AM 33.0339 117.0058 220° Southwest  Level Estimated
09:54AM 32.9520 116.9248 220° Southwest  Level Estimated
09:55AM 32.8700 116.8440 220° Southwest  Level Estimated
09:56AM 32.7879 116.7634 220° Southwest  Level Estimated
09:57AM 32.7058 116.6829 220° Southwest  Level Estimated
09:58AM 32.6236 116.6025 219° Southwest  Level Estimated
09:59AM 32.5414 116.5223 219° Southwest  Level Estimated
10:00AM 32.4592 116.4423 219° Southwest  Level Estimated
10:01AM 32.3769 116.3624 219° Southwest  Level Estimated
10:02AM 32.2945 116.2826 219° Southwest  Level Estimated
10:03AM 32.2121 116.2030 219° Southwest  Level Estimated
10:04AM 32.1296 116.1235 219° Southwest  Level Estimated
10:05AM 32.0471 116.0442 219° Southwest  Level Estimated
10:06AM 31.9646 115.9650 219° Southwest  Level Estimated
10:07AM 31.8819 115.8859 219° Southwest  Level Estimated
10:08AM 31.7993 115.8070 219° Southwest  Level Estimated
10:09AM 31.7166 115.7283 219° Southwest  Level Estimated
10:10AM 31.6338 115.6496 219° Southwest  Level Estimated
10:11AM 31.5510 115.5712 219° Southwest  Level Estimated
10:12AM 31.4682 115.4928 219° Southwest  Level Estimated
10:13AM 31.3853 115.4146 219° Southwest  Level Estimated
10:14AM 31.3023 115.3365 219° Southwest  Level Estimated
10:15AM 31.2193 115.2586 219° Southwest  Level Estimated
10:16AM 31.1363 115.1808 219° Southwest  Level Estimated
10:17AM 31.0532 115.1031 219° Southwest  Level Estimated
10:18AM 30.9701 115.0256 219° Southwest  Level Estimated
10:19AM 30.8869 114.9482 219° Southwest  Level Estimated
10:20AM 30.8037 114.8710 219° Southwest  Level Estimated
10:21AM 30.7204 114.7939 219° Southwest  Level Estimated
10:22AM 30.6371 114.7169 218° Southwest  Level Estimated
10:23AM 30.5537 114.6400 218° Southwest  Level Estimated
10:24AM 30.4703 114.5633 218° Southwest  Level Estimated
10:25AM 30.3869 114.4867 218° Southwest  Level Estimated
10:26AM 30.3034 114.4103 218° Southwest  Level Estimated
10:27AM 30.2198 114.3339 218° Southwest  Level Estimated
10:28AM 30.1362 114.2577 218° Southwest  Level Estimated
10:29AM 30.0526 114.1817 218° Southwest  Level Estimated
10:30AM 29.9689 114.1057 218° Southwest  Level Estimated
10:31AM 29.8852 114.0299 218° Southwest  Level Estimated
10:32AM 29.8015 113.9542 218° Southwest  Level Estimated
10:33AM 29.7177 113.8786 218° Southwest  Level Estimated
10:34AM 29.6338 113.8032 218° Southwest  Level Estimated
10:35AM 29.5499 113.7279 218° Southwest  Level Estimated
10:36AM 29.4660 113.6527 218° Southwest  Level Estimated
10:37AM 29.3820 113.5777 218° Southwest  Level Estimated
10:38AM 29.2980 113.5027 218° Southwest  Level Estimated
10:39AM 29.2140 113.4279 218° Southwest  Level Estimated
10:40AM 29.1299 113.3532 218° Southwest  Level Estimated
10:41AM 29.0457 113.2786 218° Southwest  Level Estimated
10:42AM 28.9615 113.2042 218° Southwest  Level Estimated
10:43AM 28.8773 113.1299 218° Southwest  Level Estimated
10:44AM 28.7931 113.0557 218° Southwest  Level Estimated
10:45AM 28.7088 112.9816 218° Southwest  Level Estimated
10:46AM 28.6244 112.9076 218° Southwest  Level Estimated
10:47AM 28.5400 112.8337 218° Southwest  Level Estimated
10:48AM 28.4556 112.7600 218° Southwest  Level Estimated
10:49AM 28.3712 112.6864 217° Southwest  Level Estimated
10:50AM 28.2867 112.6129 217° Southwest  Level Estimated
10:51AM 28.2021 112.5395 217° Southwest  Level Estimated
10:52AM 28.1175 112.4663 217° Southwest  Level Estimated
10:53AM 28.0329 112.3931 217° Southwest  Level Estimated
10:54AM 27.9483 112.3201 217° Southwest  Level Estimated
10:55AM 27.8636 112.2472 217° Southwest  Level Estimated
10:56AM 27.7788 112.1744 217° Southwest  Level Estimated
10:57AM 27.6941 112.1017 217° Southwest  Level Estimated
10:58AM 27.6092 112.0291 217° Southwest  Level Estimated
10:59AM 27.5244 111.9566 217° Southwest  Level Estimated
11:00AM 27.4395 111.8843 217° Southwest  Level Estimated
11:01AM 27.3546 111.8121 217° Southwest  Level Estimated
11:02AM 27.2696 111.7399 217° Southwest  Level Estimated
11:03AM 27.1846 111.6679 217° Southwest  Level Estimated
11:04AM 27.0996 111.5960 217° Southwest  Level Estimated
11:05AM 27.0145 111.5242 217° Southwest  Level Estimated
11:06AM 26.9294 111.4525 217° Southwest  Level Estimated
11:07AM 26.8443 111.3809 217° Southwest  Level Estimated
11:08AM 26.7591 111.3094 217° Southwest  Level Estimated
11:09AM 26.6739 111.2381 217° Southwest  Level Estimated
11:10AM 26.5886 111.1668 217° Southwest  Level Estimated
11:11AM 26.5034 111.0957 217° Southwest  Level Estimated
11:12AM 26.4180 111.0246 217° Southwest  Level Estimated
11:13AM 26.3327 110.9537 217° Southwest  Level Estimated
11:14AM 26.2473 110.8828 217° Southwest  Level Estimated
11:15AM 26.1619 110.8121 217° Southwest  Level Estimated
11:16AM 26.0764 110.7414 217° Southwest  Level Estimated
11:17AM 25.9909 110.6709 217° Southwest  Level Estimated
11:18AM 25.9054 110.6005 217° Southwest  Level Estimated
11:19AM 25.8198 110.5302 217° Southwest  Level Estimated
11:20AM 25.7342 110.4599 216° Southwest  Level Estimated
11:21AM 25.6486 110.3898 216° Southwest  Level Estimated
11:22AM 25.5629 110.3198 216° Southwest  Level Estimated
11:23AM 25.4772 110.2499 216° Southwest  Level Estimated
11:24AM 25.3915 110.1801 216° Southwest  Level Estimated
11:25AM 25.3057 110.1103 216° Southwest  Level Estimated
11:26AM 25.2199 110.0407 216° Southwest  Level Estimated
11:27AM 25.2181 110.0392 216° Southwest  Level Estimated
11:28AM 25.2181 110.0392 214° Southwest  Level Estimated
11:29AM 25.2181 110.0392 214° Southwest  Level Estimated
11:30AM 25.2181 110.0392 214° Southwest  Level Estimated
11:31AM 25.2181 110.0392 214° Southwest  Level Estimated
11:32AM 25.2181 110.0392 214° Southwest  Level Estimated
11:33AM 25.2181 110.0392 214° Southwest  Level Estimated
11:34AM 25.2181 110.0392 214° Southwest  Level Estimated
11:35AM 25.2181 110.0392 214° Southwest  Level Estimated
11:36AM 25.2181 110.0392 214° Southwest  Level Estimated